Time;durP1;ratioP1;P1;durP2;ratioP2;P2;SDS_P1;SDS_P2;PMS_P1;PMS_P2;Temp;Humidity;BMP_temperature;BMP_pressure;BME280_temperature;BME280_humidity;BME280_pressure;Samples;Min_cycle;Max_cycle;Signal;HPM_P1;HPM_P2
2022/05/06 00:00:47;;;;;;;41.00;37.67;;;;;;;6.54;100.00;101834.59;5092410;28;20883;-81
2022/05/06 00:03:21;;;;;;;36.95;34.00;;;;;;;6.53;100.00;101846.13;5086968;28;20109;-80
2022/05/06 00:05:56;;;;;;;38.35;35.08;;;;;;;6.35;100.00;101851.38;5088056;28;20473;-80
2022/05/06 00:08:26;;;;;;;39.97;36.60;;;;;;;6.61;100.00;101846.19;5081783;28;20381;-81
2022/05/06 00:11:00;;;;;;;42.30;39.03;;;;;;;6.57;100.00;101858.88;5087230;28;20041;-80
2022/05/06 00:13:43;;;;;;;43.20;39.38;;;;;;;6.35;100.00;101857.50;5084303;28;20076;-83
2022/05/06 00:16:12;;;;;;;;;;;;;;;6.52;100.00;101855.03;5091442;28;20495;-81
2022/05/06 00:19:01;;;;;;;38.25;35.15;;;;;;;6.49;100.00;101850.88;5093629;28;19919;-81
2022/05/06 00:21:30;;;;;;;36.58;33.75;;;;;;;6.28;100.00;101859.09;5083053;28;20052;-81
2022/05/06 00:23:57;;;;;;;36.10;33.58;;;;;;;6.06;100.00;101855.06;5080860;28;20071;-81
2022/05/06 00:26:29;;;;;;;37.33;34.67;;;;;;;6.35;100.00;101859.31;5078214;28;20048;-80
2022/05/06 00:28:58;;;;;;;37.13;34.00;;;;;;;6.34;100.00;101863.75;5087518;28;20464;-81
2022/05/06 00:31:25;;;;;;;35.80;33.00;;;;;;;6.36;100.00;101871.53;5087073;28;20076;-82
2022/05/06 00:33:52;;;;;;;36.10;33.28;;;;;;;6.38;100.00;101865.13;5091194;28;20470;-82
2022/05/06 00:36:22;;;;;;;45.20;33.28;;;;;;;6.25;100.00;101866.47;5088086;28;20040;-81
2022/05/06 00:38:54;;;;;;;36.13;33.22;;;;;;;6.27;100.00;101875.09;5077899;28;20143;-81
2022/05/06 00:41:23;;;;;;;37.28;34.38;;;;;;;6.30;100.00;101865.06;5081526;28;20048;-82
2022/05/06 00:43:52;;;;;;;34.13;31.15;;;;;;;6.09;100.00;101870.59;5083677;28;20054;-81
2022/05/06 00:46:24;;;;;;;37.50;34.22;;;;;;;6.27;100.00;101868.00;5078257;28;20102;-82
2022/05/06 00:48:57;;;;;;;36.10;33.10;;;;;;;5.93;100.00;101860.72;5082290;28;20484;-82
2022/05/06 00:51:28;;;;;;;38.50;35.35;;;;;;;6.14;100.00;101860.44;5088843;28;20052;-81
2022/05/06 00:53:57;;;;;;;37.83;34.92;;;;;;;5.88;100.00;101867.38;5086155;28;20113;-81
2022/05/06 00:56:26;;;;;;;33.55;31.00;;;;;;;6.10;100.00;101863.50;5089725;28;20108;-80
2022/05/06 00:58:53;;;;;;;35.30;32.58;;;;;;;5.71;100.00;101869.78;5088273;28;20044;-80
2022/05/06 01:01:23;;;;;;;36.13;33.63;;;;;;;5.71;100.00;101877.69;5086005;28;20457;-80
2022/05/06 01:03:50;;;;;;;34.88;32.20;;;;;;;5.55;100.00;101860.84;5084707;28;20530;-82
2022/05/06 01:06:22;;;;;;;33.85;31.45;;;;;;;5.70;100.00;101859.41;5086419;28;20052;-80
2022/05/06 01:08:53;;;;;;;34.47;31.98;;;;;;;5.95;100.00;101857.91;5087837;28;20481;-80
2022/05/06 01:11:29;;;;;;;32.85;30.08;;;;;;;6.05;100.00;101858.69;5089235;28;20047;-81
2022/05/06 01:13:56;;;;;;;33.33;30.63;;;;;;;6.24;100.00;101864.81;5094906;28;20451;-81
2022/05/06 01:16:23;;;;;;;34.10;31.67;;;;;;;6.08;100.00;101868.94;5091170;28;20110;-81
2022/05/06 01:18:54;;;;;;;34.67;31.92;;;;;;;5.60;100.00;101869.13;5089865;28;20056;-82
2022/05/06 01:21:27;;;;;;;35.63;33.13;;;;;;;6.03;100.00;101862.47;5091180;28;20485;-81
2022/05/06 01:23:58;;;;;;;34.45;31.85;;;;;;;5.91;100.00;101861.78;5085131;28;20044;-80
2022/05/06 01:26:53;;;;;;;35.65;33.05;;;;;;;5.95;100.00;101853.47;5089971;28;20048;-82
2022/05/06 01:29:30;;;;;;;36.63;34.15;;;;;;;5.96;100.00;101863.03;5091986;28;20552;-82
2022/05/06 01:31:58;;;;;;;37.55;34.65;;;;;;;6.01;100.00;101865.22;5092798;28;20063;-81
2022/05/06 01:34:34;;;;;;;35.35;32.65;;;;;;;5.87;100.00;101858.63;5097757;28;20101;-80
2022/05/06 01:37:03;;;;;;;36.08;33.40;;;;;;;5.53;100.00;101858.34;5096184;28;20044;-81
2022/05/06 01:39:38;;;;;;;32.53;29.92;;;;;;;5.69;100.00;101853.31;5092083;28;20323;-79
2022/05/06 01:42:06;;;;;;;33.30;30.70;;;;;;;5.80;100.00;101851.44;5091444;28;20066;-81
2022/05/06 01:44:40;;;;;;;36.40;33.30;;;;;;;5.99;100.00;101853.16;5086805;28;20044;-81
2022/05/06 01:47:26;;;;;;;38.10;34.67;;;;;;;5.56;100.00;101851.97;5090693;28;20081;-80
2022/05/06 01:49:55;;;;;;;39.80;36.10;;;;;;;5.62;100.00;101843.47;5082231;28;20129;-80
2022/05/06 01:52:25;;;;;;;36.10;32.88;;;;;;;5.32;100.00;101847.19;5094387;28;20048;-81
2022/05/06 01:54:57;;;;;;;36.80;33.35;;;;;;;5.61;100.00;101841.81;5094982;28;20117;-81
2022/05/06 01:57:30;;;;;;;39.72;36.17;;;;;;;5.64;100.00;101850.25;5088256;28;20097;-82
2022/05/06 01:59:59;;;;;;;46.70;41.78;;;;;;;5.36;100.00;101845.97;5095245;28;20044;-81
2022/05/06 02:02:27;;;;;;;40.72;36.92;;;;;;;5.59;100.00;101852.50;5212166;22;20048;-81
2022/05/06 02:05:17;;;;;;;36.90;33.60;;;;;;;5.31;100.00;101848.19;5109716;28;20463;-82
2022/05/06 02:07:55;;;;;;;34.05;31.35;;;;;;;5.18;100.00;101848.50;5117292;27;20152;-81
2022/05/06 02:10:26;;;;;;;34.97;32.13;;;;;;;5.14;100.00;101850.56;5116357;28;20040;-81
2022/05/06 02:12:57;;;;;;;33.95;31.27;;;;;;;5.30;100.00;101846.53;5106507;28;20036;-81
2022/05/06 02:15:30;;;;;;;34.72;31.88;;;;;;;5.24;100.00;101848.75;5113596;28;20089;-81
2022/05/06 02:17:58;;;;;;;35.13;32.25;;;;;;;5.33;100.00;101847.06;5112016;28;20054;-81
2022/05/06 02:20:28;;;;;;;38.20;34.80;;;;;;;5.32;100.00;101850.66;5116430;28;20047;-81
2022/05/06 02:22:58;;;;;;;34.70;32.20;;;;;;;5.28;100.00;101855.38;5111212;28;20044;-79
2022/05/06 02:25:26;;;;;;;33.38;31.02;;;;;;;4.98;100.00;101845.06;5105405;28;20116;-80
2022/05/06 02:27:53;;;;;;;32.72;29.92;;;;;;;4.62;100.00;101851.91;5114679;28;20047;-81
2022/05/06 02:33:14;;;;;;;34.53;31.42;;;;;;;4.75;100.00;101849.81;5110779;28;20042;-80
2022/05/06 02:35:43;;;;;;;33.40;30.40;;;;;;;4.78;100.00;101863.53;5112880;28;20047;-80
2022/05/06 02:38:13;;;;;;;35.22;32.17;;;;;;;5.41;100.00;101865.59;5111426;28;20108;-80
2022/05/06 02:40:42;;;;;;;40.42;36.67;;;;;;;5.60;100.00;101863.88;5116145;28;20124;-81
2022/05/06 02:43:09;;;;;;;35.17;32.28;;;;;;;5.59;100.00;101855.13;5116375;28;20063;-79
2022/05/06 02:45:36;;;;;;;35.63;32.72;;;;;;;5.56;100.00;101862.50;5100511;28;20048;-81
2022/05/06 02:48:05;;;;;;;43.25;39.65;;;;;;;5.49;100.00;101867.53;5110404;28;20047;-81
2022/05/06 02:50:39;;;;;;;39.15;35.67;;;;;;;5.19;100.00;101853.63;5116124;28;20043;-82
2022/05/06 02:53:19;;;;;;;36.45;33.25;;;;;;;5.39;100.00;101861.47;5114962;28;20468;-80
2022/05/06 02:55:54;;;;;;;35.53;32.42;;;;;;;4.98;100.00;101852.97;5111194;28;20132;-80
2022/05/06 02:58:23;;;;;;;33.10;30.40;;;;;;;5.11;100.00;101863.19;5116158;28;20167;-82
2022/05/06 03:00:50;;;;;;;35.13;31.90;;;;;;;5.08;100.00;101861.66;5115909;28;20064;-81
2022/05/06 03:03:18;;;;;;;33.90;31.08;;;;;;;4.90;100.00;101866.00;5116240;28;20522;-80
2022/05/06 03:05:47;;;;;;;31.90;29.38;;;;;;;4.87;100.00;101869.78;5116181;28;20113;-81
2022/05/06 03:08:14;;;;;;;31.80;29.65;;;;;;;4.95;100.00;101872.50;5115844;28;20051;-81
2022/05/06 03:10:42;;;;;;;30.77;28.30;;;;;;;4.94;100.00;101873.50;5107390;28;20441;-81
2022/05/06 03:13:11;;;;;;;30.60;28.20;;;;;;;5.13;100.00;101872.63;5116233;28;20132;-81
2022/05/06 03:15:52;;;;;;;28.00;25.90;;;;;;;5.11;100.00;101877.19;5110224;28;20498;-81
2022/05/06 03:18:19;;;;;;;28.60;26.58;;;;;;;5.10;100.00;101872.06;5116262;28;20048;-80
2022/05/06 03:20:56;;;;;;;29.65;27.15;;;;;;;5.26;100.00;101882.84;5104840;28;20112;-81
2022/05/06 03:23:25;;;;;;;27.98;25.88;;;;;;;4.44;100.00;101881.53;5116076;28;20383;-80
2022/05/06 03:25:52;;;;;;;31.52;28.80;;;;;;;4.75;100.00;101884.88;5114894;28;20101;-81
2022/05/06 03:28:23;;;;;;;30.55;28.13;;;;;;;5.21;100.00;101878.03;5113170;28;20449;-81
2022/05/06 03:30:52;;;;;;;31.23;28.38;;;;;;;5.01;100.00;101887.75;5106188;28;20051;-82
2022/05/06 03:33:19;;;;;;;29.77;27.38;;;;;;;4.97;100.00;101877.66;5095486;28;20059;-81
2022/05/06 03:35:49;;;;;;;29.10;26.85;;;;;;;5.20;100.00;101878.97;5113998;28;20482;-80
2022/05/06 03:38:17;;;;;;;29.48;27.17;;;;;;;5.05;100.00;101878.63;5112987;28;20080;-80
2022/05/06 03:40:45;;;;;;;29.02;26.92;;;;;;;4.90;100.00;101873.91;5112404;28;20464;-81
2022/05/06 03:43:12;;;;;;;29.75;27.52;;;;;;;4.91;100.00;101875.59;5113268;28;20047;-79
2022/05/06 03:45:42;;;;;;;28.35;26.02;;;;;;;5.26;100.00;101883.69;5099212;28;20514;-81
2022/05/06 03:48:09;;;;;;;29.35;27.20;;;;;;;5.22;100.00;101876.22;5099965;28;20121;-80
2022/05/06 03:53:39;;;;;;;30.08;27.73;;;;;;;5.96;100.00;101888.56;5100898;28;20048;-81
2022/05/06 03:56:10;;;;;;;27.00;25.20;;;;;;;6.08;100.00;101897.97;5114569;28;20101;-82
2022/05/06 03:58:38;;;;;;;28.65;26.55;;;;;;;6.28;100.00;101895.19;5099606;28;20054;-80
2022/05/06 04:01:08;;;;;;;27.92;25.98;;;;;;;6.26;100.00;101897.97;5112317;28;20528;-81
2022/05/06 04:03:35;;;;;;;28.08;26.20;;;;;;;6.31;100.00;101908.91;5113836;28;20128;-81
2022/05/06 04:06:02;;;;;;;28.95;26.70;;;;;;;6.39;100.00;101902.91;5110913;28;20054;-80
2022/05/06 04:08:30;;;;;;;27.33;25.40;;;;;;;6.56;100.00;101912.63;5112759;28;20039;-82
2022/05/06 04:10:58;;;;;;;27.88;26.08;;;;;;;6.84;100.00;101910.75;5111373;28;20047;-80
2022/05/06 04:13:25;;;;;;;29.45;27.15;;;;;;;7.16;100.00;101896.13;5104996;28;20399;-81
2022/05/06 04:15:52;;;;;;;27.88;25.77;;;;;;;7.23;100.00;101904.25;5114192;28;20048;-80
2022/05/06 04:18:20;;;;;;;28.30;26.50;;;;;;;7.21;100.00;101906.25;5112451;28;20044;-81
2022/05/06 04:23:33;;;;;;;26.08;24.25;;;;;;;7.44;100.00;101914.47;5111156;28;20050;-82
2022/05/06 04:26:03;;;;;;;26.75;25.02;;;;;;;7.74;100.00;101913.97;5114324;28;20043;-80
2022/05/06 04:28:32;;;;;;;27.00;25.20;;;;;;;7.80;100.00;101916.00;5101236;28;20065;-80
2022/05/06 04:31:09;;;;;;;26.98;25.27;;;;;;;7.96;100.00;101923.19;5114412;28;20075;-83
2022/05/06 04:33:39;;;;;;;28.55;26.50;;;;;;;7.93;100.00;101925.31;5114710;28;20073;-80
2022/05/06 04:36:07;;;;;;;32.45;29.77;;;;;;;7.86;100.00;101919.00;5114743;28;20051;-80
2022/05/06 04:38:35;;;;;;;31.17;28.77;;;;;;;8.14;100.00;101915.16;5111737;28;20039;-81
2022/05/06 04:41:03;;;;;;;29.90;27.60;;;;;;;8.02;100.00;101911.97;5113828;28;20047;-80
2022/05/06 04:43:34;;;;;;;34.33;31.35;;;;;;;8.48;100.00;101903.69;5112552;28;20051;-82
2022/05/06 04:46:07;;;;;;;30.27;28.23;;;;;;;8.60;100.00;101905.03;5114177;28;20455;-81
2022/05/06 04:48:34;;;;;;;30.10;27.90;;;;;;;8.60;100.00;101910.31;5114119;28;20388;-82
2022/05/06 04:51:04;;;;;;;32.42;29.75;;;;;;;9.01;100.00;101906.84;5113714;28;20112;-81
2022/05/06 04:53:33;;;;;;;28.65;26.55;;;;;;;9.08;100.00;101916.63;5110827;28;20475;-81
2022/05/06 04:56:01;;;;;;;29.38;27.13;;;;;;;9.37;100.00;101924.03;5114346;28;20051;-81
2022/05/06 04:58:29;;;;;;;28.63;26.75;;;;;;;9.45;100.00;101914.44;5114169;28;20048;-81
2022/05/06 05:00:55;;;;;;;30.10;28.02;;;;;;;9.53;100.00;101914.38;5113459;28;20051;-81
2022/05/06 05:03:24;;;;;;;29.80;27.52;;;;;;;9.51;100.00;101908.44;5114418;28;20047;-82
2022/05/06 05:05:52;;;;;;;28.15;26.15;;;;;;;9.71;100.00;101914.16;5113863;28;20060;-82
2022/05/06 05:08:22;;;;;;;31.02;28.35;;;;;;;10.07;100.00;101915.34;5113131;28;20116;-80
2022/05/06 05:10:49;;;;;;;27.95;26.05;;;;;;;9.94;100.00;101912.44;5113558;28;20050;-81
2022/05/06 05:13:16;;;;;;;26.77;24.80;;;;;;;10.30;100.00;101906.66;5113925;28;20039;-82
2022/05/06 05:15:43;;;;;;;26.08;24.40;;;;;;;10.15;100.00;101913.66;5114476;28;20047;-82
2022/05/06 05:18:10;;;;;;;26.20;24.40;;;;;;;10.37;100.00;101910.25;5113750;28;20051;-82
2022/05/06 05:20:37;;;;;;;26.85;24.95;;;;;;;10.54;100.00;101924.25;5111947;28;20047;-81
2022/05/06 05:23:04;;;;;;;27.85;26.00;;;;;;;10.66;100.00;101925.50;5098366;28;20112;-81
2022/05/06 05:25:33;;;;;;;27.77;25.73;;;;;;;10.74;100.00;101922.78;5113709;28;20043;-81
2022/05/06 05:28:00;;;;;;;28.52;26.25;;;;;;;10.86;100.00;101925.00;5109101;28;20048;-80
2022/05/06 05:30:27;;;;;;;28.60;26.80;;;;;;;10.87;100.00;101932.00;5104916;28;20048;-80
2022/05/06 05:32:53;;;;;;;28.20;26.40;;;;;;;11.02;100.00;101938.19;5113608;28;20048;-82
2022/05/06 05:35:20;;;;;;;31.25;28.95;;;;;;;11.39;100.00;101933.84;5108349;28;20040;-80
2022/05/06 05:37:48;;;;;;;29.42;27.27;;;;;;;11.48;100.00;101937.28;5110475;28;20116;-83
2022/05/06 05:40:17;;;;;;;28.27;26.17;;;;;;;11.57;100.00;101929.00;5109407;28;20043;-81
2022/05/06 05:42:46;;;;;;;27.85;25.88;;;;;;;11.76;100.00;101924.16;5104428;28;20043;-81
2022/05/06 05:48:22;;;;;;;26.70;24.77;;;;;;;15.47;100.00;101922.09;5110813;28;20117;-84
2022/05/06 05:50:50;;;;;;;27.95;26.23;;;;;;;16.04;100.00;101920.50;5110888;28;20376;-82
2022/05/06 05:53:17;;;;;;;28.38;26.65;;;;;;;13.51;100.00;101922.84;5107401;28;20051;-80
2022/05/06 05:55:44;;;;;;;28.27;26.35;;;;;;;13.51;100.00;101932.72;5113484;28;20048;-81
2022/05/06 05:58:18;;;;;;;28.30;26.67;;;;;;;15.34;100.00;101937.13;5117545;28;20536;-83
2022/05/06 06:00:45;;;;;;;29.50;26.95;;;;;;;15.73;100.00;101927.41;5109296;28;20043;-84
2022/05/06 06:03:12;;;;;;;28.52;26.63;;;;;;;16.44;100.00;101931.00;5117600;28;20051;-84
2022/05/06 06:05:44;;;;;;;30.88;28.40;;;;;;;16.57;100.00;101936.28;5116596;28;20052;-83
2022/05/06 06:08:12;;;;;;;30.02;28.02;;;;;;;16.57;100.00;101936.28;5110188;28;20048;-81
2022/05/06 06:10:40;;;;;;;30.80;28.73;;;;;;;14.64;100.00;101939.38;5108777;28;20047;-80
2022/05/06 06:13:18;;;;;;;31.35;29.13;;;;;;;14.41;100.00;101933.53;5113440;28;20112;-83
2022/05/06 06:15:52;;;;;;;32.67;30.20;;;;;;;14.48;100.00;101931.69;5106826;28;20036;-81
2022/05/06 06:18:23;;;;;;;33.65;31.27;;;;;;;14.30;100.00;101937.59;5100095;28;20070;-81
2022/05/06 06:20:51;;;;;;;31.85;29.73;;;;;;;14.71;100.00;101944.75;5111793;28;20051;-83
2022/05/06 06:23:17;;;;;;;31.23;28.92;;;;;;;14.81;100.00;101931.78;5116679;28;20047;-81
2022/05/06 06:25:52;;;;;;;30.80;28.50;;;;;;;15.11;100.00;101924.19;5106051;28;20108;-80
2022/05/06 06:28:23;;;;;;;30.42;28.23;;;;;;;15.50;100.00;101919.81;5110973;28;20569;-81
2022/05/06 06:31:14;;;;;;;37.38;34.30;;;;;;;15.83;100.00;101910.88;5115626;28;20463;-84
2022/05/06 06:33:43;;;;;;;32.60;30.30;;;;;;;16.33;100.00;101915.59;5087574;28;20052;-84
2022/05/06 06:36:17;;;;;;;30.67;28.33;;;;;;;16.89;100.00;101921.03;5109519;28;20043;-85
2022/05/06 06:38:53;;;;;;;30.52;28.30;;;;;;;17.01;100.00;101915.78;5116402;28;20043;-83
2022/05/06 06:41:25;;;;;;;31.52;29.50;;;;;;;17.34;96.55;101923.53;5116701;28;20043;-85
2022/05/06 06:44:04;;;;;;;30.15;27.80;;;;;;;17.30;100.00;101911.56;5115124;28;20043;-81
2022/05/06 06:46:38;;;;;;;29.63;27.23;;;;;;;17.55;88.71;101910.69;5100368;28;20137;-82
2022/05/06 06:49:09;;;;;;;31.45;29.27;;;;;;;17.83;87.74;101916.41;5115860;28;20122;-84
2022/05/06 06:51:39;;;;;;;30.42;28.02;;;;;;;17.95;83.79;101911.09;5116665;28;20043;-81
2022/05/06 06:54:11;;;;;;;30.63;28.40;;;;;;;18.00;81.96;101923.84;5115456;28;20054;-83
2022/05/06 06:56:38;;;;;;;96.75;67.05;;;;;;;17.75;74.26;101907.78;5116826;28;20070;-81
2022/05/06 06:59:15;;;;;;;40.90;36.85;;;;;;;17.90;74.78;101910.13;5113326;28;20054;-83
2022/05/06 07:01:42;;;;;;;32.70;29.60;;;;;;;17.93;75.58;101901.63;5115486;28;20074;-83
2022/05/06 07:04:15;;;;;;;30.08;28.08;;;;;;;18.10;80.60;101907.19;5108335;28;20051;-81
2022/05/06 07:12:15;;;;;;;32.30;30.30;;;;;;;18.55;80.25;101915.66;5114947;28;20047;-82
2022/05/06 07:14:49;;;;;;;32.42;29.75;;;;;;;18.80;74.26;101920.88;5111001;28;20047;-82
2022/05/06 07:17:27;;;;;;;35.22;32.45;;;;;;;18.96;72.77;101922.88;5117869;28;20126;-82
2022/05/06 07:19:53;;;;;;;33.67;31.38;;;;;;;18.76;70.99;101923.22;5115884;28;20043;-82
2022/05/06 07:22:41;;;;;;;31.58;29.33;;;;;;;19.02;78.92;101923.00;5115881;28;20055;-84
2022/05/06 07:25:11;;;;;;;31.35;29.35;;;;;;;19.21;72.79;101921.84;5101109;28;20044;-82
2022/05/06 07:27:44;;;;;;;31.73;29.63;;;;;;;19.14;64.40;101926.53;5116029;28;20047;-80
2022/05/06 07:30:14;;;;;;;32.10;29.90;;;;;;;18.85;73.38;101925.56;5114793;28;20058;-80
2022/05/06 07:32:41;;;;;;;32.22;29.60;;;;;;;19.57;66.91;101925.34;5115483;28;20055;-83
2022/05/06 07:35:20;;;;;;;31.50;29.00;;;;;;;18.99;75.30;101917.03;5115909;28;20058;-82
2022/05/06 07:37:52;;;;;;;30.92;28.80;;;;;;;19.70;76.46;101910.81;5111019;28;20058;-81
2022/05/06 07:40:23;;;;;;;31.52;29.42;;;;;;;19.57;71.72;101909.97;5114018;28;20047;-81
2022/05/06 07:42:59;;;;;;;36.88;34.38;;;;;;;19.59;69.54;101918.66;5115119;28;20047;-80
2022/05/06 07:48:23;;;;;;;44.10;41.17;;;;;;;19.96;67.81;101915.66;5108903;28;20052;-82
2022/05/06 07:50:50;;;;;;;39.45;37.15;;;;;;;20.04;59.31;101907.19;5114904;28;20052;-82
2022/05/06 07:53:19;;;;;;;40.42;37.90;;;;;;;20.14;56.21;101898.47;5115881;28;20433;-81
2022/05/06 07:55:48;;;;;;;30.25;28.27;;;;;;;20.30;58.80;101907.66;5114535;28;20039;-81
2022/05/06 07:58:21;;;;;;;32.83;30.25;;;;;;;20.09;62.44;101914.56;5114616;28;20063;-84
2022/05/06 08:00:56;;;;;;;31.13;28.88;;;;;;;19.61;68.29;101916.56;5104567;27;20484;-82
2022/05/06 08:06:07;;;;;;;31.17;29.13;;;;;;;20.51;56.00;101909.66;5113981;28;20511;-82
2022/05/06 08:08:41;;;;;;;32.35;30.17;;;;;;;21.03;55.43;101905.97;5114576;28;20388;-83
2022/05/06 08:11:10;;;;;;;32.35;30.05;;;;;;;21.17;54.49;101912.63;5113085;28;20102;-83
2022/05/06 08:13:45;;;;;;;35.35;32.88;;;;;;;21.35;53.20;101910.72;5113669;28;20085;-81
2022/05/06 08:16:13;;;;;;;33.40;30.65;;;;;;;21.38;56.38;101916.47;5109778;28;20138;-81
2022/05/06 08:18:40;;;;;;;32.45;29.92;;;;;;;21.00;54.00;101911.88;5114600;28;20079;-81
2022/05/06 08:21:22;;;;;;;31.48;29.08;;;;;;;21.01;55.95;101921.59;5114668;28;20376;-82
2022/05/06 08:23:49;;;;;;;33.05;30.85;;;;;;;20.93;54.62;101922.81;5113900;28;20054;-81
2022/05/06 08:26:20;;;;;;;31.70;29.70;;;;;;;21.37;53.94;101920.25;5113831;28;20096;-81
2022/05/06 08:28:52;;;;;;;33.78;30.88;;;;;;;22.18;56.01;101923.19;5113171;28;20131;-83
2022/05/06 08:31:23;;;;;;;30.95;28.85;;;;;;;21.85;54.41;101918.72;5114450;28;20061;-85
2022/05/06 08:36:34;;;;;;;31.00;28.95;;;;;;;21.45;51.27;101929.81;5104262;28;20364;-81
2022/05/06 08:39:01;;;;;;;31.33;29.17;;;;;;;21.19;58.26;101920.50;5114946;28;20050;-82
2022/05/06 08:41:30;;;;;;;33.55;30.85;;;;;;;21.55;53.50;101916.44;5114862;28;20059;-83
2022/05/06 08:50:50;;;;;;;31.95;29.80;;;;;;;21.25;48.28;101908.72;5115240;28;20044;-83
2022/05/06 08:52:30;;;;;;;32.88;30.52;;;;;;;21.68;47.96;101907.16;5112064;28;20047;-83
2022/05/06 08:54:57;;;;;;;33.80;31.40;;;;;;;21.02;56.00;101909.72;5113775;28;20108;-82
2022/05/06 08:57:25;;;;;;;32.33;29.80;;;;;;;21.73;44.77;101909.91;5113453;28;20051;-83
2022/05/06 08:59:53;;;;;;;31.85;29.52;;;;;;;21.67;50.65;101909.03;5111956;28;20079;-81
2022/05/06 09:02:24;;;;;;;32.15;30.00;;;;;;;20.92;46.46;101896.88;5112705;28;20055;-80
2022/05/06 09:04:55;;;;;;;32.50;30.10;;;;;;;21.85;48.79;101898.97;5113089;28;20115;-82
2022/05/06 09:07:33;;;;;;;31.50;29.30;;;;;;;21.30;53.93;101897.97;5108789;28;20048;-80
2022/05/06 09:10:18;;;;;;;31.42;29.05;;;;;;;21.83;49.77;101888.41;5111573;28;20048;-82
2022/05/06 09:13:03;;;;;;;;;;;;;;;;;;;;;
2022/05/06 09:18:29;;;;;;;40.88;37.25;;;;;;;22.37;45.76;101899.28;5113672;28;20050;-81
2022/05/06 09:21:10;;;;;;;31.27;29.23;;;;;;;22.55;44.66;101889.16;5108373;28;20036;-80
2022/05/06 09:23:39;;;;;;;32.28;29.95;;;;;;;21.77;45.43;101889.41;5113828;28;20059;-81
2022/05/06 09:26:18;;;;;;;32.35;30.00;;;;;;;21.80;46.03;101883.50;5113234;28;20453;-84
2022/05/06 09:28:44;;;;;;;32.67;30.17;;;;;;;22.51;48.78;101891.56;5116897;28;20043;-81
2022/05/06 09:31:18;;;;;;;32.13;30.05;;;;;;;22.61;48.21;101888.94;5117718;28;20489;-80
2022/05/06 09:33:51;;;;;;;33.08;30.25;;;;;;;22.87;48.66;101886.41;5118039;28;20487;-82
2022/05/06 09:36:29;;;;;;;32.95;30.23;;;;;;;22.28;46.97;101883.75;5116597;28;20048;-81
2022/05/06 09:39:21;;;;;;;;;;;;;;;;;;;;;
2022/05/06 09:42:04;;;;;;;30.15;28.10;;;;;;;22.93;51.12;101884.56;5113119;28;20402;-82
2022/05/06 09:44:38;;;;;;;32.70;30.15;;;;;;;22.78;46.14;101877.13;5111316;28;20472;-81
2022/05/06 09:47:18;;;;;;;32.25;29.35;;;;;;;23.28;46.07;101870.44;5114833;28;20036;-82
2022/05/06 09:49:46;;;;;;;31.25;29.00;;;;;;;22.73;51.86;101880.63;5105795;28;20043;-80
2022/05/06 09:52:15;;;;;;;31.15;28.70;;;;;;;22.70;51.78;101875.75;5115592;28;20051;-81
2022/05/06 09:54:52;;;;;;;31.35;28.95;;;;;;;23.82;46.17;101869.34;5117161;28;20100;-81
2022/05/06 09:57:25;;;;;;;33.17;30.75;;;;;;;22.57;49.97;101876.16;5116521;28;20458;-79
2022/05/06 10:00:01;;;;;;;31.70;29.50;;;;;;;23.31;45.47;101870.72;5108584;28;20044;-81
2022/05/06 10:02:30;;;;;;;33.78;31.40;;;;;;;23.01;50.88;101868.66;5109454;28;20483;-80
2022/05/06 10:05:00;;;;;;;33.17;31.00;;;;;;;23.25;48.49;101874.50;5112148;28;20040;-80
2022/05/06 10:07:28;;;;;;;32.08;29.50;;;;;;;23.34;42.54;101874.00;5114711;28;20135;-82
2022/05/06 10:10:05;;;;;;;33.83;31.30;;;;;;;22.36;42.86;101869.75;5111324;28;20051;-83
2022/05/06 10:12:38;;;;;;;33.05;30.70;;;;;;;22.24;47.61;101859.13;5116181;28;20051;-81
2022/05/06 10:15:26;;;;;;;;;;;;;;;;;;;;;
2022/05/06 10:18:07;;;;;;;;;;;;;;;;;;;;;
2022/05/06 10:20:55;;;;;;;31.98;29.65;;;;;;;23.02;44.40;101858.63;5112386;28;20444;-83
2022/05/06 10:23:24;;;;;;;32.72;30.30;;;;;;;23.21;48.41;101865.28;5114102;28;20052;-82
2022/05/06 10:26:01;;;;;;;32.22;30.02;;;;;;;23.60;46.64;101861.34;5113629;28;20112;-80
2022/05/06 10:34:30;;;;;;;35.45;32.67;;;;;;;24.17;41.33;101858.53;4398235;28;9999806;-80
2022/05/06 10:37:04;;;;;;;32.83;30.20;;;;;;;23.94;44.14;101851.72;5107353;28;20411;-79
2022/05/06 10:39:37;;;;;;;32.13;29.63;;;;;;;23.16;45.06;101856.28;5112729;28;20043;-79
2022/05/06 10:42:13;;;;;;;31.30;28.90;;;;;;;23.47;45.66;101855.34;5110161;28;20047;-81
2022/05/06 10:44:41;;;;;;;30.15;27.88;;;;;;;23.57;45.36;101843.75;5114383;28;20096;-80
2022/05/06 10:47:48;;;;;;;31.52;29.33;;;;;;;23.11;46.35;101840.81;5111188;28;20049;-81
2022/05/06 10:50:25;;;;;;;31.48;29.08;;;;;;;23.03;43.18;101844.84;5113593;28;20054;-82
2022/05/06 10:53:01;;;;;;;32.22;29.83;;;;;;;22.94;45.26;101832.03;5112205;28;20048;-82
2022/05/06 10:55:30;;;;;;;30.98;28.60;;;;;;;23.45;44.24;101840.41;5112995;28;20483;-82
2022/05/06 10:58:11;;;;;;;32.22;29.95;;;;;;;24.04;43.25;101823.78;5113170;27;20139;-82
2022/05/06 11:00:42;;;;;;;31.35;29.27;;;;;;;23.53;45.74;101812.78;5107113;28;20135;-82
2022/05/06 11:03:17;;;;;;;33.63;31.33;;;;;;;23.24;45.09;101818.66;5093100;28;20401;-81
2022/05/06 11:05:47;;;;;;;32.72;30.38;;;;;;;23.57;44.63;101819.34;5093577;28;20044;-82
2022/05/06 11:08:19;;;;;;;31.08;28.88;;;;;;;23.19;42.74;101815.13;5081446;28;20052;-81
2022/05/06 11:10:49;;;;;;;32.20;29.70;;;;;;;23.24;44.84;101820.56;5094208;28;20044;-81
2022/05/06 11:13:18;;;;;;;31.65;29.35;;;;;;;23.82;44.17;101820.50;5085504;28;20040;-80
2022/05/06 11:15:52;;;;;;;33.13;30.73;;;;;;;23.67;43.61;101811.22;5093997;28;20567;-81
2022/05/06 11:18:19;;;;;;;32.85;30.45;;;;;;;22.96;47.39;101825.28;5090856;28;20565;-80
2022/05/06 11:20:50;;;;;;;32.92;30.52;;;;;;;22.92;46.38;101816.03;5093956;28;20044;-80
2022/05/06 11:23:33;;;;;;;32.88;30.50;;;;;;;23.58;42.08;101809.31;5093507;28;20055;-80
2022/05/06 11:26:01;;;;;;;34.08;31.80;;;;;;;22.45;48.04;101805.97;5088272;28;20048;-82
2022/05/06 11:28:32;;;;;;;34.10;31.60;;;;;;;23.14;47.07;101799.63;5093170;28;20051;-81
2022/05/06 11:31:03;;;;;;;34.50;32.05;;;;;;;23.17;44.99;101792.88;5090769;28;20101;-84
2022/05/06 11:33:32;;;;;;;33.40;31.00;;;;;;;23.72;45.67;101789.56;5091777;28;20469;-82
2022/05/06 11:36:09;;;;;;;31.80;29.48;;;;;;;23.71;48.43;101781.69;5095025;28;20468;-83
2022/05/06 11:38:54;;;;;;;32.97;30.60;;;;;;;21.89;52.87;101784.63;5094973;28;20051;-83
2022/05/06 11:41:28;;;;;;;32.22;30.08;;;;;;;22.80;48.33;101791.84;5085850;28;20458;-82
2022/05/06 11:44:05;;;;;;;34.35;31.83;;;;;;;21.92;53.07;101786.00;5094601;28;20055;-83
2022/05/06 11:49:26;;;;;;;34.10;31.63;;;;;;;22.79;48.55;101782.09;5094170;28;20051;-81
2022/05/06 11:51:59;;;;;;;32.40;30.17;;;;;;;21.26;55.46;101778.75;5090201;28;20123;-83
2022/05/06 11:54:30;;;;;;;33.40;30.80;;;;;;;20.94;57.81;101783.22;5094544;28;20135;-83
2022/05/06 11:57:01;;;;;;;33.45;31.23;;;;;;;20.69;58.43;101780.97;5092078;28;20044;-82
2022/05/06 11:59:30;;;;;;;34.40;32.10;;;;;;;22.05;50.95;101779.34;5095753;28;20048;-84
2022/05/06 12:02:06;;;;;;;33.28;31.08;;;;;;;22.66;49.92;101773.63;5099217;28;20105;-81
2022/05/06 12:04:34;;;;;;;33.28;30.92;;;;;;;22.91;51.60;101768.34;5109228;28;20117;-82
2022/05/06 12:07:01;;;;;;;33.20;30.90;;;;;;;21.04;56.78;101767.97;5113356;28;20488;-82
2022/05/06 12:09:30;;;;;;;32.17;29.60;;;;;;;22.85;44.63;101774.81;5107828;28;20133;-82
2022/05/06 12:12:05;;;;;;;34.13;31.83;;;;;;;23.17;41.36;101772.00;5116693;28;20476;-83
2022/05/06 12:14:32;;;;;;;34.42;31.58;;;;;;;21.19;52.25;101772.75;5111197;28;20047;-79
2022/05/06 12:17:00;;;;;;;32.55;30.27;;;;;;;22.68;44.59;101766.06;5113857;28;20381;-80